sensor_id;sensor_type;location;lat;lon;timestamp;P1;durP1;ratioP1;P2;durP2;ratioP2
41943;SDS011;27636;52.610;13.244;2023-05-16T00:01:58;12.30;;;7.00;;
41943;SDS011;27636;52.610;13.244;2023-05-16T00:07:02;17.75;;;7.78;;
41943;SDS011;27636;52.610;13.244;2023-05-16T00:12:07;13.60;;;7.05;;
41943;SDS011;27636;52.610;13.244;2023-05-16T00:17:11;14.82;;;7.60;;
41943;SDS011;27636;52.610;13.244;2023-05-16T00:22:15;12.15;;;7.13;;
41943;SDS011;27636;52.610;13.244;2023-05-16T00:27:20;18.73;;;8.52;;
41943;SDS011;27636;52.610;13.244;2023-05-16T00:32:24;13.75;;;7.60;;
41943;SDS011;27636;52.610;13.244;2023-05-16T00:37:27;24.38;;;8.90;;
41943;SDS011;27636;52.610;13.244;2023-05-16T00:42:32;15.77;;;8.48;;
41943;SDS011;27636;52.610;13.244;2023-05-16T00:47:36;17.75;;;8.65;;
41943;SDS011;27636;52.610;13.244;2023-05-16T00:52:40;18.77;;;9.30;;
41943;SDS011;27636;52.610;13.244;2023-05-16T00:57:45;17.67;;;9.23;;
41943;SDS011;27636;52.610;13.244;2023-05-16T01:02:49;18.08;;;9.43;;
41943;SDS011;27636;52.610;13.244;2023-05-16T01:07:55;20.52;;;9.75;;
41943;SDS011;27636;52.610;13.244;2023-05-16T01:13:03;19.92;;;9.98;;
41943;SDS011;27636;52.610;13.244;2023-05-16T01:18:15;20.63;;;9.75;;
41943;SDS011;27636;52.610;13.244;2023-05-16T01:23:32;22.90;;;11.20;;
41943;SDS011;27636;52.610;13.244;2023-05-16T01:28:45;22.95;;;11.07;;
41943;SDS011;27636;52.610;13.244;2023-05-16T01:33:48;23.42;;;9.93;;
41943;SDS011;27636;52.610;13.244;2023-05-16T01:38:55;24.88;;;10.57;;
41943;SDS011;27636;52.610;13.244;2023-05-16T01:44:10;22.50;;;10.73;;
41943;SDS011;27636;52.610;13.244;2023-05-16T01:49:21;21.55;;;10.52;;
41943;SDS011;27636;52.610;13.244;2023-05-16T01:54:29;22.80;;;10.57;;
41943;SDS011;27636;52.610;13.244;2023-05-16T01:59:37;23.65;;;10.23;;
41943;SDS011;27636;52.610;13.244;2023-05-16T02:04:45;20.77;;;9.38;;
41943;SDS011;27636;52.610;13.244;2023-05-16T02:09:50;19.15;;;9.65;;
41943;SDS011;27636;52.610;13.244;2023-05-16T02:14:55;18.48;;;9.02;;
41943;SDS011;27636;52.610;13.244;2023-05-16T02:19:58;20.33;;;9.23;;
41943;SDS011;27636;52.610;13.244;2023-05-16T02:25:08;25.52;;;10.50;;
41943;SDS011;27636;52.610;13.244;2023-05-16T02:30:14;20.70;;;10.00;;
41943;SDS011;27636;52.610;13.244;2023-05-16T02:40:22;26.42;;;9.93;;
41943;SDS011;27636;52.610;13.244;2023-05-16T02:45:27;28.33;;;12.00;;
41943;SDS011;27636;52.610;13.244;2023-05-16T02:50:30;22.30;;;10.93;;
41943;SDS011;27636;52.610;13.244;2023-05-16T02:55:34;28.27;;;11.90;;
41943;SDS011;27636;52.610;13.244;2023-05-16T03:00:39;28.05;;;11.73;;
41943;SDS011;27636;52.610;13.244;2023-05-16T03:05:44;22.63;;;10.30;;
41943;SDS011;27636;52.610;13.244;2023-05-16T03:10:48;23.30;;;10.75;;
41943;SDS011;27636;52.610;13.244;2023-05-16T03:15:53;29.85;;;13.02;;
41943;SDS011;27636;52.610;13.244;2023-05-16T03:20:56;18.95;;;9.20;;
41943;SDS011;27636;52.610;13.244;2023-05-16T03:26:00;26.17;;;11.52;;
41943;SDS011;27636;52.610;13.244;2023-05-16T03:31:05;27.67;;;11.88;;
41943;SDS011;27636;52.610;13.244;2023-05-16T03:36:09;29.25;;;12.20;;
41943;SDS011;27636;52.610;13.244;2023-05-16T03:41:13;26.15;;;11.38;;
41943;SDS011;27636;52.610;13.244;2023-05-16T03:46:18;33.88;;;13.00;;
41943;SDS011;27636;52.610;13.244;2023-05-16T03:51:22;26.00;;;12.50;;
41943;SDS011;27636;52.610;13.244;2023-05-16T03:56:25;24.63;;;11.77;;
41943;SDS011;27636;52.610;13.244;2023-05-16T04:01:30;24.02;;;11.90;;
41943;SDS011;27636;52.610;13.244;2023-05-16T04:06:34;27.48;;;12.00;;
41943;SDS011;27636;52.610;13.244;2023-05-16T04:11:37;26.55;;;11.60;;
41943;SDS011;27636;52.610;13.244;2023-05-16T04:16:42;30.77;;;10.98;;
41943;SDS011;27636;52.610;13.244;2023-05-16T04:21:46;26.67;;;12.75;;
41943;SDS011;27636;52.610;13.244;2023-05-16T04:26:49;33.75;;;12.60;;
41943;SDS011;27636;52.610;13.244;2023-05-16T04:31:54;25.17;;;11.55;;
41943;SDS011;27636;52.610;13.244;2023-05-16T04:36:58;27.92;;;11.70;;
41943;SDS011;27636;52.610;13.244;2023-05-16T04:42:02;25.13;;;11.52;;
41943;SDS011;27636;52.610;13.244;2023-05-16T04:47:07;27.02;;;12.52;;
41943;SDS011;27636;52.610;13.244;2023-05-16T04:52:11;24.85;;;10.45;;
41943;SDS011;27636;52.610;13.244;2023-05-16T04:57:14;25.50;;;11.43;;
41943;SDS011;27636;52.610;13.244;2023-05-16T05:02:19;21.73;;;9.90;;
41943;SDS011;27636;52.610;13.244;2023-05-16T05:07:22;21.40;;;10.52;;
41943;SDS011;27636;52.610;13.244;2023-05-16T05:12:29;20.40;;;9.38;;
41943;SDS011;27636;52.610;13.244;2023-05-16T05:17:34;19.88;;;9.07;;
41943;SDS011;27636;52.610;13.244;2023-05-16T05:22:39;18.23;;;8.63;;
41943;SDS011;27636;52.610;13.244;2023-05-16T05:27:43;20.08;;;8.85;;
41943;SDS011;27636;52.610;13.244;2023-05-16T05:32:48;18.33;;;8.00;;
41943;SDS011;27636;52.610;13.244;2023-05-16T05:37:51;25.27;;;8.57;;
41943;SDS011;27636;52.610;13.244;2023-05-16T05:42:55;14.57;;;7.80;;
41943;SDS011;27636;52.610;13.244;2023-05-16T05:47:59;20.25;;;7.85;;
41943;SDS011;27636;52.610;13.244;2023-05-16T05:53:03;18.23;;;7.32;;
41943;SDS011;27636;52.610;13.244;2023-05-16T05:58:06;16.35;;;7.90;;
41943;SDS011;27636;52.610;13.244;2023-05-16T06:03:12;19.50;;;7.90;;
41943;SDS011;27636;52.610;13.244;2023-05-16T06:08:18;18.45;;;8.55;;
41943;SDS011;27636;52.610;13.244;2023-05-16T06:13:22;16.47;;;7.13;;
41943;SDS011;27636;52.610;13.244;2023-05-16T06:18:28;15.45;;;6.50;;
41943;SDS011;27636;52.610;13.244;2023-05-16T06:23:32;17.55;;;7.35;;
41943;SDS011;27636;52.610;13.244;2023-05-16T06:28:36;17.27;;;6.50;;
41943;SDS011;27636;52.610;13.244;2023-05-16T06:33:42;13.30;;;5.70;;
41943;SDS011;27636;52.610;13.244;2023-05-16T06:43:50;11.45;;;5.90;;
41943;SDS011;27636;52.610;13.244;2023-05-16T06:48:56;12.10;;;5.30;;
41943;SDS011;27636;52.610;13.244;2023-05-16T06:54:00;10.45;;;5.07;;
41943;SDS011;27636;52.610;13.244;2023-05-16T06:59:06;11.65;;;4.70;;
41943;SDS011;27636;52.610;13.244;2023-05-16T07:04:12;14.93;;;4.95;;
41943;SDS011;27636;52.610;13.244;2023-05-16T07:09:19;7.93;;;3.50;;
41943;SDS011;27636;52.610;13.244;2023-05-16T07:14:23;9.20;;;3.73;;
41943;SDS011;27636;52.610;13.244;2023-05-16T07:19:28;8.35;;;2.78;;
41943;SDS011;27636;52.610;13.244;2023-05-16T07:24:31;9.88;;;3.60;;
41943;SDS011;27636;52.610;13.244;2023-05-16T07:29:35;7.28;;;2.80;;
41943;SDS011;27636;52.610;13.244;2023-05-16T07:34:41;6.88;;;2.80;;
41943;SDS011;27636;52.610;13.244;2023-05-16T07:39:45;5.93;;;2.40;;
41943;SDS011;27636;52.610;13.244;2023-05-16T07:44:49;5.75;;;2.45;;
41943;SDS011;27636;52.610;13.244;2023-05-16T07:49:54;6.78;;;2.50;;
41943;SDS011;27636;52.610;13.244;2023-05-16T07:54:57;6.05;;;2.60;;
41943;SDS011;27636;52.610;13.244;2023-05-16T08:00:01;8.95;;;2.20;;
41943;SDS011;27636;52.610;13.244;2023-05-16T08:05:15;6.57;;;2.40;;
41943;SDS011;27636;52.610;13.244;2023-05-16T08:10:18;5.38;;;1.75;;
41943;SDS011;27636;52.610;13.244;2023-05-16T08:15:25;7.30;;;1.90;;
41943;SDS011;27636;52.610;13.244;2023-05-16T08:20:31;4.75;;;1.90;;
41943;SDS011;27636;52.610;13.244;2023-05-16T08:25:35;5.60;;;1.90;;
41943;SDS011;27636;52.610;13.244;2023-05-16T08:30:39;5.88;;;1.67;;
41943;SDS011;27636;52.610;13.244;2023-05-16T08:35:46;4.20;;;1.25;;
41943;SDS011;27636;52.610;13.244;2023-05-16T08:40:51;4.40;;;1.63;;
41943;SDS011;27636;52.610;13.244;2023-05-16T08:45:55;6.38;;;1.73;;
41943;SDS011;27636;52.610;13.244;2023-05-16T08:51:00;4.05;;;1.42;;
41943;SDS011;27636;52.610;13.244;2023-05-16T08:56:08;6.65;;;1.55;;
41943;SDS011;27636;52.610;13.244;2023-05-16T09:01:13;5.95;;;1.83;;
41943;SDS011;27636;52.610;13.244;2023-05-16T09:06:19;6.13;;;1.50;;
41943;SDS011;27636;52.610;13.244;2023-05-16T09:11:22;9.27;;;1.60;;
41943;SDS011;27636;52.610;13.244;2023-05-16T09:16:26;5.28;;;2.03;;
41943;SDS011;27636;52.610;13.244;2023-05-16T09:21:31;5.82;;;1.60;;
41943;SDS011;27636;52.610;13.244;2023-05-16T09:26:36;4.68;;;1.30;;
41943;SDS011;27636;52.610;13.244;2023-05-16T09:31:41;4.45;;;1.58;;
41943;SDS011;27636;52.610;13.244;2023-05-16T09:36:46;5.85;;;1.92;;
41943;SDS011;27636;52.610;13.244;2023-05-16T09:41:57;5.82;;;1.98;;
41943;SDS011;27636;52.610;13.244;2023-05-16T09:47:01;5.88;;;1.60;;
41943;SDS011;27636;52.610;13.244;2023-05-16T09:52:06;4.82;;;1.52;;
41943;SDS011;27636;52.610;13.244;2023-05-16T09:57:09;10.75;;;1.70;;
41943;SDS011;27636;52.610;13.244;2023-05-16T10:02:13;4.78;;;1.67;;
41943;SDS011;27636;52.610;13.244;2023-05-16T10:07:19;3.25;;;1.45;;
41943;SDS011;27636;52.610;13.244;2023-05-16T10:12:24;5.05;;;1.77;;
41943;SDS011;27636;52.610;13.244;2023-05-16T10:17:32;11.88;;;2.40;;
41943;SDS011;27636;52.610;13.244;2023-05-16T10:22:41;8.20;;;1.92;;
41943;SDS011;27636;52.610;13.244;2023-05-16T10:27:46;7.20;;;2.08;;
41943;SDS011;27636;52.610;13.244;2023-05-16T10:32:50;7.28;;;1.83;;
41943;SDS011;27636;52.610;13.244;2023-05-16T10:37:56;17.90;;;2.10;;
41943;SDS011;27636;52.610;13.244;2023-05-16T10:43:01;11.43;;;2.45;;
41943;SDS011;27636;52.610;13.244;2023-05-16T10:48:05;4.80;;;1.55;;
41943;SDS011;27636;52.610;13.244;2023-05-16T10:53:14;7.03;;;1.83;;
41943;SDS011;27636;52.610;13.244;2023-05-16T10:58:23;8.88;;;2.00;;
41943;SDS011;27636;52.610;13.244;2023-05-16T11:09:19;4.57;;;1.40;;
41943;SDS011;27636;52.610;13.244;2023-05-16T11:14:25;7.30;;;2.17;;
41943;SDS011;27636;52.610;13.244;2023-05-16T11:19:31;5.85;;;1.50;;
41943;SDS011;27636;52.610;13.244;2023-05-16T11:24:38;6.28;;;1.70;;
41943;SDS011;27636;52.610;13.244;2023-05-16T11:29:51;10.50;;;2.10;;
41943;SDS011;27636;52.610;13.244;2023-05-16T11:34:56;6.20;;;1.77;;
41943;SDS011;27636;52.610;13.244;2023-05-16T11:40:02;7.38;;;1.58;;
41943;SDS011;27636;52.610;13.244;2023-05-16T11:45:09;5.30;;;1.58;;
41943;SDS011;27636;52.610;13.244;2023-05-16T11:50:15;6.47;;;1.77;;
41943;SDS011;27636;52.610;13.244;2023-05-16T11:55:23;7.93;;;1.65;;
41943;SDS011;27636;52.610;13.244;2023-05-16T12:00:46;3.88;;;1.17;;
41943;SDS011;27636;52.610;13.244;2023-05-16T12:05:51;4.18;;;1.15;;
41943;SDS011;27636;52.610;13.244;2023-05-16T12:10:57;6.05;;;1.50;;
41943;SDS011;27636;52.610;13.244;2023-05-16T12:16:00;6.63;;;1.90;;
41943;SDS011;27636;52.610;13.244;2023-05-16T12:21:04;4.55;;;1.65;;
41943;SDS011;27636;52.610;13.244;2023-05-16T12:26:09;9.10;;;1.45;;
41943;SDS011;27636;52.610;13.244;2023-05-16T12:31:17;7.30;;;1.20;;
41943;SDS011;27636;52.610;13.244;2023-05-16T12:36:34;5.63;;;1.45;;
41943;SDS011;27636;52.610;13.244;2023-05-16T12:41:40;8.93;;;1.60;;
41943;SDS011;27636;52.610;13.244;2023-05-16T12:46:46;9.70;;;1.60;;
41943;SDS011;27636;52.610;13.244;2023-05-16T12:51:52;7.95;;;1.17;;
41943;SDS011;27636;52.610;13.244;2023-05-16T12:56:58;6.55;;;1.20;;
41943;SDS011;27636;52.610;13.244;2023-05-16T13:02:02;8.85;;;2.05;;
41943;SDS011;27636;52.610;13.244;2023-05-16T13:07:06;5.67;;;1.47;;
41943;SDS011;27636;52.610;13.244;2023-05-16T13:12:11;7.30;;;1.80;;
41943;SDS011;27636;52.610;13.244;2023-05-16T13:17:16;5.07;;;1.40;;
41943;SDS011;27636;52.610;13.244;2023-05-16T13:22:20;8.25;;;1.42;;
41943;SDS011;27636;52.610;13.244;2023-05-16T13:27:25;5.43;;;1.27;;
41943;SDS011;27636;52.610;13.244;2023-05-16T13:37:33;6.23;;;1.00;;
41943;SDS011;27636;52.610;13.244;2023-05-16T13:42:37;4.65;;;1.20;;
41943;SDS011;27636;52.610;13.244;2023-05-16T13:47:41;10.40;;;1.23;;
41943;SDS011;27636;52.610;13.244;2023-05-16T13:52:44;4.85;;;1.10;;
41943;SDS011;27636;52.610;13.244;2023-05-16T13:57:50;9.30;;;1.13;;
41943;SDS011;27636;52.610;13.244;2023-05-16T14:02:54;3.90;;;0.95;;
41943;SDS011;27636;52.610;13.244;2023-05-16T14:07:58;6.18;;;1.25;;
41943;SDS011;27636;52.610;13.244;2023-05-16T14:13:03;3.83;;;0.93;;
41943;SDS011;27636;52.610;13.244;2023-05-16T14:18:07;9.02;;;1.13;;
41943;SDS011;27636;52.610;13.244;2023-05-16T14:23:11;3.15;;;1.25;;
41943;SDS011;27636;52.610;13.244;2023-05-16T14:28:16;3.60;;;0.93;;
41943;SDS011;27636;52.610;13.244;2023-05-16T14:33:19;6.75;;;1.17;;
41943;SDS011;27636;52.610;13.244;2023-05-16T14:38:23;6.68;;;1.77;;
41943;SDS011;27636;52.610;13.244;2023-05-16T14:43:28;5.88;;;1.15;;
41943;SDS011;27636;52.610;13.244;2023-05-16T14:48:32;5.30;;;1.23;;
41943;SDS011;27636;52.610;13.244;2023-05-16T14:53:36;6.20;;;1.25;;
41943;SDS011;27636;52.610;13.244;2023-05-16T14:58:41;5.10;;;1.00;;
41943;SDS011;27636;52.610;13.244;2023-05-16T15:03:45;2.70;;;1.02;;
41943;SDS011;27636;52.610;13.244;2023-05-16T15:08:58;3.67;;;0.82;;
41943;SDS011;27636;52.610;13.244;2023-05-16T15:14:03;3.38;;;0.77;;
41943;SDS011;27636;52.610;13.244;2023-05-16T15:19:06;7.30;;;1.25;;
41943;SDS011;27636;52.610;13.244;2023-05-16T15:24:11;7.00;;;1.10;;
41943;SDS011;27636;52.610;13.244;2023-05-16T15:29:16;9.73;;;1.52;;
41943;SDS011;27636;52.610;13.244;2023-05-16T15:34:27;5.07;;;1.10;;
41943;SDS011;27636;52.610;13.244;2023-05-16T15:39:30;2.10;;;0.90;;
41943;SDS011;27636;52.610;13.244;2023-05-16T15:44:35;2.10;;;0.55;;
41943;SDS011;27636;52.610;13.244;2023-05-16T15:49:39;2.95;;;0.82;;
41943;SDS011;27636;52.610;13.244;2023-05-16T15:54:43;4.13;;;0.90;;
41943;SDS011;27636;52.610;13.244;2023-05-16T15:59:48;2.30;;;0.95;;
41943;SDS011;27636;52.610;13.244;2023-05-16T16:04:51;6.13;;;0.80;;
41943;SDS011;27636;52.610;13.244;2023-05-16T16:09:55;3.38;;;0.80;;
41943;SDS011;27636;52.610;13.244;2023-05-16T16:15:01;1.88;;;0.77;;
41943;SDS011;27636;52.610;13.244;2023-05-16T16:20:07;5.07;;;0.90;;
41943;SDS011;27636;52.610;13.244;2023-05-16T16:25:11;3.50;;;1.05;;
41943;SDS011;27636;52.610;13.244;2023-05-16T16:30:16;3.95;;;1.10;;
41943;SDS011;27636;52.610;13.244;2023-05-16T16:35:19;3.70;;;1.02;;
41943;SDS011;27636;52.610;13.244;2023-05-16T16:40:24;5.73;;;2.00;;
41943;SDS011;27636;52.610;13.244;2023-05-16T16:45:29;2.25;;;0.70;;
41943;SDS011;27636;52.610;13.244;2023-05-16T16:50:33;3.88;;;0.80;;
41943;SDS011;27636;52.610;13.244;2023-05-16T16:55:37;5.03;;;1.15;;
41943;SDS011;27636;52.610;13.244;2023-05-16T17:00:44;9.80;;;1.00;;
41943;SDS011;27636;52.610;13.244;2023-05-16T17:05:48;3.83;;;0.88;;
41943;SDS011;27636;52.610;13.244;2023-05-16T17:10:51;6.20;;;1.13;;
41943;SDS011;27636;52.610;13.244;2023-05-16T17:15:56;3.83;;;0.70;;
41943;SDS011;27636;52.610;13.244;2023-05-16T17:21:00;3.17;;;0.90;;
41943;SDS011;27636;52.610;13.244;2023-05-16T17:26:03;4.18;;;0.95;;
41943;SDS011;27636;52.610;13.244;2023-05-16T17:31:08;4.22;;;1.10;;
41943;SDS011;27636;52.610;13.244;2023-05-16T17:36:11;4.57;;;1.23;;
41943;SDS011;27636;52.610;13.244;2023-05-16T17:41:15;3.10;;;0.95;;
41943;SDS011;27636;52.610;13.244;2023-05-16T17:46:20;5.13;;;1.02;;
41943;SDS011;27636;52.610;13.244;2023-05-16T17:51:24;8.25;;;1.20;;
41943;SDS011;27636;52.610;13.244;2023-05-16T17:56:27;4.63;;;1.10;;
41943;SDS011;27636;52.610;13.244;2023-05-16T18:01:33;3.33;;;1.17;;
41943;SDS011;27636;52.610;13.244;2023-05-16T18:06:36;9.85;;;1.75;;
41943;SDS011;27636;52.610;13.244;2023-05-16T18:11:40;2.90;;;0.70;;
41943;SDS011;27636;52.610;13.244;2023-05-16T18:16:45;3.28;;;0.82;;
41943;SDS011;27636;52.610;13.244;2023-05-16T18:21:49;4.18;;;1.23;;
41943;SDS011;27636;52.610;13.244;2023-05-16T18:26:52;8.77;;;1.40;;
41943;SDS011;27636;52.610;13.244;2023-05-16T18:31:57;3.55;;;1.15;;
41943;SDS011;27636;52.610;13.244;2023-05-16T18:37:02;8.73;;;1.60;;
41943;SDS011;27636;52.610;13.244;2023-05-16T18:42:06;1.38;;;0.77;;
41943;SDS011;27636;52.610;13.244;2023-05-16T18:47:11;4.68;;;1.73;;
41943;SDS011;27636;52.610;13.244;2023-05-16T18:52:17;3.00;;;0.90;;
41943;SDS011;27636;52.610;13.244;2023-05-16T18:57:21;3.55;;;0.80;;
41943;SDS011;27636;52.610;13.244;2023-05-16T19:02:27;2.03;;;1.00;;
41943;SDS011;27636;52.610;13.244;2023-05-16T19:07:44;9.75;;;1.65;;
41943;SDS011;27636;52.610;13.244;2023-05-16T19:12:48;1.67;;;1.00;;
41943;SDS011;27636;52.610;13.244;2023-05-16T19:17:53;4.63;;;0.90;;
41943;SDS011;27636;52.610;13.244;2023-05-16T19:22:56;3.50;;;1.10;;
41943;SDS011;27636;52.610;13.244;2023-05-16T19:28:00;4.45;;;1.00;;
41943;SDS011;27636;52.610;13.244;2023-05-16T19:33:05;3.70;;;0.77;;
41943;SDS011;27636;52.610;13.244;2023-05-16T19:38:09;10.63;;;1.33;;
41943;SDS011;27636;52.610;13.244;2023-05-16T19:43:13;6.63;;;1.38;;
41943;SDS011;27636;52.610;13.244;2023-05-16T19:48:18;5.38;;;0.95;;
41943;SDS011;27636;52.610;13.244;2023-05-16T19:53:22;8.15;;;1.73;;
41943;SDS011;27636;52.610;13.244;2023-05-16T19:58:25;4.15;;;1.13;;
41943;SDS011;27636;52.610;13.244;2023-05-16T20:03:31;4.03;;;1.13;;
41943;SDS011;27636;52.610;13.244;2023-05-16T20:08:35;3.38;;;0.98;;
41943;SDS011;27636;52.610;13.244;2023-05-16T20:13:38;5.28;;;1.27;;
41943;SDS011;27636;52.610;13.244;2023-05-16T20:18:43;4.20;;;1.25;;
41943;SDS011;27636;52.610;13.244;2023-05-16T20:23:49;5.18;;;1.73;;
41943;SDS011;27636;52.610;13.244;2023-05-16T20:28:53;2.85;;;1.02;;
41943;SDS011;27636;52.610;13.244;2023-05-16T20:33:58;3.72;;;1.23;;
41943;SDS011;27636;52.610;13.244;2023-05-16T20:39:02;1.63;;;0.93;;
41943;SDS011;27636;52.610;13.244;2023-05-16T20:44:05;7.65;;;1.30;;
41943;SDS011;27636;52.610;13.244;2023-05-16T20:49:10;5.40;;;1.38;;
41943;SDS011;27636;52.610;13.244;2023-05-16T20:54:14;7.38;;;1.85;;
41943;SDS011;27636;52.610;13.244;2023-05-16T20:59:17;4.18;;;1.17;;
41943;SDS011;27636;52.610;13.244;2023-05-16T21:04:23;3.15;;;1.02;;
41943;SDS011;27636;52.610;13.244;2023-05-16T21:09:27;5.15;;;1.20;;
41943;SDS011;27636;52.610;13.244;2023-05-16T21:14:30;3.42;;;1.17;;
41943;SDS011;27636;52.610;13.244;2023-05-16T21:19:36;3.38;;;1.30;;
41943;SDS011;27636;52.610;13.244;2023-05-16T21:24:40;4.45;;;1.10;;
41943;SDS011;27636;52.610;13.244;2023-05-16T21:29:44;2.55;;;0.98;;
41943;SDS011;27636;52.610;13.244;2023-05-16T21:34:49;1.80;;;0.90;;
41943;SDS011;27636;52.610;13.244;2023-05-16T21:39:52;6.53;;;1.83;;
41943;SDS011;27636;52.610;13.244;2023-05-16T21:44:56;3.13;;;1.10;;
41943;SDS011;27636;52.610;13.244;2023-05-16T21:50:01;6.85;;;1.10;;
41943;SDS011;27636;52.610;13.244;2023-05-16T21:55:05;5.25;;;1.55;;
41943;SDS011;27636;52.610;13.244;2023-05-16T22:00:10;4.75;;;1.42;;
41943;SDS011;27636;52.610;13.244;2023-05-16T22:05:18;5.03;;;0.98;;
41943;SDS011;27636;52.610;13.244;2023-05-16T22:10:21;6.70;;;1.05;;
41943;SDS011;27636;52.610;13.244;2023-05-16T22:15:25;2.40;;;0.88;;
41943;SDS011;27636;52.610;13.244;2023-05-16T22:20:30;1.50;;;0.90;;
41943;SDS011;27636;52.610;13.244;2023-05-16T22:25:34;3.45;;;1.10;;
41943;SDS011;27636;52.610;13.244;2023-05-16T22:30:37;3.65;;;1.00;;
41943;SDS011;27636;52.610;13.244;2023-05-16T22:35:43;3.28;;;0.90;;
41943;SDS011;27636;52.610;13.244;2023-05-16T22:40:46;6.55;;;1.30;;
41943;SDS011;27636;52.610;13.244;2023-05-16T22:45:50;6.38;;;1.35;;
41943;SDS011;27636;52.610;13.244;2023-05-16T22:50:55;2.50;;;1.23;;
41943;SDS011;27636;52.610;13.244;2023-05-16T22:55:59;7.97;;;1.83;;
41943;SDS011;27636;52.610;13.244;2023-05-16T23:01:03;7.53;;;1.52;;
41943;SDS011;27636;52.610;13.244;2023-05-16T23:06:08;7.00;;;1.88;;
41943;SDS011;27636;52.610;13.244;2023-05-16T23:16:16;3.38;;;1.25;;
41943;SDS011;27636;52.610;13.244;2023-05-16T23:21:20;6.28;;;1.63;;
41943;SDS011;27636;52.610;13.244;2023-05-16T23:26:24;7.95;;;1.58;;
41943;SDS011;27636;52.610;13.244;2023-05-16T23:31:28;3.30;;;1.67;;
41943;SDS011;27636;52.610;13.244;2023-05-16T23:36:33;3.70;;;1.35;;
41943;SDS011;27636;52.610;13.244;2023-05-16T23:41:37;3.08;;;1.20;;
41943;SDS011;27636;52.610;13.244;2023-05-16T23:46:41;6.45;;;1.60;;
41943;SDS011;27636;52.610;13.244;2023-05-16T23:51:46;3.25;;;1.70;;
